sensor_id;sensor_type;location;lat;lon;timestamp;P1;durP1;ratioP1;P2;durP2;ratioP2
12314;SDS011;23886;46.614;14.276;2022-08-19T00:02:01;11.37;;;5.87;;
12314;SDS011;23886;46.614;14.276;2022-08-19T00:04:28;9.97;;;6.77;;
12314;SDS011;23886;46.614;14.276;2022-08-19T00:06:58;9.80;;;6.27;;
12314;SDS011;23886;46.614;14.276;2022-08-19T00:09:26;9.93;;;6.97;;
12314;SDS011;23886;46.614;14.276;2022-08-19T00:11:55;11.37;;;6.90;;
12314;SDS011;23886;46.614;14.276;2022-08-19T00:14:23;11.57;;;6.60;;
12314;SDS011;23886;46.614;14.276;2022-08-19T00:16:51;11.67;;;6.97;;
12314;SDS011;23886;46.614;14.276;2022-08-19T00:19:19;11.97;;;6.77;;
12314;SDS011;23886;46.614;14.276;2022-08-19T00:21:46;8.73;;;6.47;;
12314;SDS011;23886;46.614;14.276;2022-08-19T00:24:14;8.00;;;6.40;;
12314;SDS011;23886;46.614;14.276;2022-08-19T00:26:41;10.47;;;6.40;;
12314;SDS011;23886;46.614;14.276;2022-08-19T00:29:11;10.43;;;6.80;;
12314;SDS011;23886;46.614;14.276;2022-08-19T00:31:40;8.57;;;6.27;;
12314;SDS011;23886;46.614;14.276;2022-08-19T00:34:08;11.13;;;6.60;;
12314;SDS011;23886;46.614;14.276;2022-08-19T00:36:36;8.97;;;5.83;;
12314;SDS011;23886;46.614;14.276;2022-08-19T00:39:03;8.57;;;6.30;;
12314;SDS011;23886;46.614;14.276;2022-08-19T00:41:31;9.53;;;6.23;;
12314;SDS011;23886;46.614;14.276;2022-08-19T00:43:59;10.50;;;6.47;;
12314;SDS011;23886;46.614;14.276;2022-08-19T00:46:28;9.37;;;6.33;;
12314;SDS011;23886;46.614;14.276;2022-08-19T00:48:56;10.83;;;6.20;;
12314;SDS011;23886;46.614;14.276;2022-08-19T00:51:24;8.50;;;6.00;;
12314;SDS011;23886;46.614;14.276;2022-08-19T00:53:54;7.73;;;5.87;;
12314;SDS011;23886;46.614;14.276;2022-08-19T00:56:23;12.70;;;6.27;;
12314;SDS011;23886;46.614;14.276;2022-08-19T00:58:51;10.83;;;7.07;;
12314;SDS011;23886;46.614;14.276;2022-08-19T01:01:20;7.50;;;5.97;;
12314;SDS011;23886;46.614;14.276;2022-08-19T01:03:48;8.27;;;5.70;;
12314;SDS011;23886;46.614;14.276;2022-08-19T01:06:15;11.03;;;6.83;;
12314;SDS011;23886;46.614;14.276;2022-08-19T01:08:43;8.93;;;5.63;;
12314;SDS011;23886;46.614;14.276;2022-08-19T01:11:10;12.23;;;6.40;;
12314;SDS011;23886;46.614;14.276;2022-08-19T01:13:38;8.90;;;6.60;;
12314;SDS011;23886;46.614;14.276;2022-08-19T01:16:06;12.80;;;6.77;;
12314;SDS011;23886;46.614;14.276;2022-08-19T01:18:36;11.40;;;6.50;;
12314;SDS011;23886;46.614;14.276;2022-08-19T01:21:09;8.83;;;6.10;;
12314;SDS011;23886;46.614;14.276;2022-08-19T01:23:43;9.90;;;6.40;;
12314;SDS011;23886;46.614;14.276;2022-08-19T01:26:12;10.00;;;6.77;;
12314;SDS011;23886;46.614;14.276;2022-08-19T01:28:42;11.50;;;6.90;;
12314;SDS011;23886;46.614;14.276;2022-08-19T01:31:10;8.93;;;6.30;;
12314;SDS011;23886;46.614;14.276;2022-08-19T01:33:40;10.23;;;7.90;;
12314;SDS011;23886;46.614;14.276;2022-08-19T01:36:08;10.80;;;7.70;;
12314;SDS011;23886;46.614;14.276;2022-08-19T01:38:38;10.23;;;7.50;;
12314;SDS011;23886;46.614;14.276;2022-08-19T01:41:09;11.37;;;7.57;;
12314;SDS011;23886;46.614;14.276;2022-08-19T01:43:37;12.10;;;7.93;;
12314;SDS011;23886;46.614;14.276;2022-08-19T01:46:05;9.33;;;7.17;;
12314;SDS011;23886;46.614;14.276;2022-08-19T01:48:33;11.40;;;7.07;;
12314;SDS011;23886;46.614;14.276;2022-08-19T01:51:01;10.00;;;7.10;;
12314;SDS011;23886;46.614;14.276;2022-08-19T01:53:28;7.70;;;6.67;;
12314;SDS011;23886;46.614;14.276;2022-08-19T01:55:55;9.17;;;7.07;;
12314;SDS011;23886;46.614;14.276;2022-08-19T01:58:24;10.43;;;7.13;;
12314;SDS011;23886;46.614;14.276;2022-08-19T02:00:55;9.13;;;7.10;;
12314;SDS011;23886;46.614;14.276;2022-08-19T02:03:22;11.83;;;6.53;;
12314;SDS011;23886;46.614;14.276;2022-08-19T02:05:53;9.37;;;7.10;;
12314;SDS011;23886;46.614;14.276;2022-08-19T02:08:21;10.00;;;6.93;;
12314;SDS011;23886;46.614;14.276;2022-08-19T02:10:48;11.23;;;7.07;;
12314;SDS011;23886;46.614;14.276;2022-08-19T02:13:16;9.77;;;6.83;;
12314;SDS011;23886;46.614;14.276;2022-08-19T02:15:44;10.37;;;7.17;;
12314;SDS011;23886;46.614;14.276;2022-08-19T02:18:11;10.53;;;7.27;;
12314;SDS011;23886;46.614;14.276;2022-08-19T02:20:40;11.53;;;7.03;;
12314;SDS011;23886;46.614;14.276;2022-08-19T02:23:08;11.97;;;7.40;;
12314;SDS011;23886;46.614;14.276;2022-08-19T02:25:36;13.93;;;7.43;;
12314;SDS011;23886;46.614;14.276;2022-08-19T02:28:03;13.70;;;6.90;;
12314;SDS011;23886;46.614;14.276;2022-08-19T02:30:30;12.07;;;7.13;;
12314;SDS011;23886;46.614;14.276;2022-08-19T02:32:59;11.47;;;7.00;;
12314;SDS011;23886;46.614;14.276;2022-08-19T02:35:26;14.87;;;7.67;;
12314;SDS011;23886;46.614;14.276;2022-08-19T02:37:53;13.33;;;7.70;;
12314;SDS011;23886;46.614;14.276;2022-08-19T02:40:37;11.37;;;6.53;;
12314;SDS011;23886;46.614;14.276;2022-08-19T02:43:04;10.97;;;6.10;;
12314;SDS011;23886;46.614;14.276;2022-08-19T02:45:33;8.90;;;6.70;;
12314;SDS011;23886;46.614;14.276;2022-08-19T02:48:03;13.30;;;6.90;;
12314;SDS011;23886;46.614;14.276;2022-08-19T02:50:31;9.50;;;6.63;;
12314;SDS011;23886;46.614;14.276;2022-08-19T02:52:58;9.73;;;6.40;;
12314;SDS011;23886;46.614;14.276;2022-08-19T02:55:25;12.23;;;8.47;;
12314;SDS011;23886;46.614;14.276;2022-08-19T02:57:52;10.57;;;7.77;;
12314;SDS011;23886;46.614;14.276;2022-08-19T03:00:19;10.57;;;7.27;;
12314;SDS011;23886;46.614;14.276;2022-08-19T03:02:46;14.83;;;8.70;;
12314;SDS011;23886;46.614;14.276;2022-08-19T03:05:15;11.13;;;7.53;;
12314;SDS011;23886;46.614;14.276;2022-08-19T03:07:42;9.20;;;7.30;;
12314;SDS011;23886;46.614;14.276;2022-08-19T03:10:10;8.27;;;6.20;;
12314;SDS011;23886;46.614;14.276;2022-08-19T03:12:37;9.50;;;6.57;;
12314;SDS011;23886;46.614;14.276;2022-08-19T03:15:05;9.03;;;6.67;;
12314;SDS011;23886;46.614;14.276;2022-08-19T03:17:33;8.43;;;6.40;;
12314;SDS011;23886;46.614;14.276;2022-08-19T03:20:01;9.10;;;6.80;;
12314;SDS011;23886;46.614;14.276;2022-08-19T03:22:30;6.93;;;6.03;;
12314;SDS011;23886;46.614;14.276;2022-08-19T03:24:57;6.33;;;5.60;;
12314;SDS011;23886;46.614;14.276;2022-08-19T03:27:24;7.00;;;5.87;;
12314;SDS011;23886;46.614;14.276;2022-08-19T03:29:52;8.80;;;5.77;;
12314;SDS011;23886;46.614;14.276;2022-08-19T03:32:19;8.73;;;6.77;;
12314;SDS011;23886;46.614;14.276;2022-08-19T03:34:47;9.33;;;6.13;;
12314;SDS011;23886;46.614;14.276;2022-08-19T03:37:14;9.10;;;7.03;;
12314;SDS011;23886;46.614;14.276;2022-08-19T03:39:42;8.50;;;6.27;;
12314;SDS011;23886;46.614;14.276;2022-08-19T03:42:10;7.83;;;6.37;;
12314;SDS011;23886;46.614;14.276;2022-08-19T03:44:37;6.70;;;5.73;;
12314;SDS011;23886;46.614;14.276;2022-08-19T03:47:04;10.10;;;6.67;;
12314;SDS011;23886;46.614;14.276;2022-08-19T03:49:32;8.63;;;6.90;;
12314;SDS011;23886;46.614;14.276;2022-08-19T03:52:00;8.87;;;6.77;;
12314;SDS011;23886;46.614;14.276;2022-08-19T03:54:30;8.97;;;7.17;;
12314;SDS011;23886;46.614;14.276;2022-08-19T03:56:58;10.13;;;7.47;;
12314;SDS011;23886;46.614;14.276;2022-08-19T03:59:25;11.13;;;6.87;;
12314;SDS011;23886;46.614;14.276;2022-08-19T04:01:55;9.03;;;7.93;;
12314;SDS011;23886;46.614;14.276;2022-08-19T04:04:23;10.33;;;8.03;;
12314;SDS011;23886;46.614;14.276;2022-08-19T04:06:51;10.30;;;8.17;;
12314;SDS011;23886;46.614;14.276;2022-08-19T04:09:19;9.13;;;8.07;;
12314;SDS011;23886;46.614;14.276;2022-08-19T04:11:47;8.60;;;7.40;;
12314;SDS011;23886;46.614;14.276;2022-08-19T04:14:17;9.17;;;8.30;;
12314;SDS011;23886;46.614;14.276;2022-08-19T04:16:46;10.50;;;7.97;;
12314;SDS011;23886;46.614;14.276;2022-08-19T04:19:15;9.13;;;7.67;;
12314;SDS011;23886;46.614;14.276;2022-08-19T04:21:43;11.47;;;8.33;;
12314;SDS011;23886;46.614;14.276;2022-08-19T04:24:12;11.20;;;7.60;;
12314;SDS011;23886;46.614;14.276;2022-08-19T04:26:39;9.83;;;7.77;;
12314;SDS011;23886;46.614;14.276;2022-08-19T04:29:07;11.20;;;7.30;;
12314;SDS011;23886;46.614;14.276;2022-08-19T04:31:38;7.60;;;6.80;;
12314;SDS011;23886;46.614;14.276;2022-08-19T04:34:07;10.73;;;7.83;;
12314;SDS011;23886;46.614;14.276;2022-08-19T04:36:37;10.23;;;7.17;;
12314;SDS011;23886;46.614;14.276;2022-08-19T04:39:06;9.37;;;7.33;;
12314;SDS011;23886;46.614;14.276;2022-08-19T04:41:35;8.47;;;6.80;;
12314;SDS011;23886;46.614;14.276;2022-08-19T04:44:20;9.00;;;6.80;;
12314;SDS011;23886;46.614;14.276;2022-08-19T04:46:49;11.83;;;7.37;;
12314;SDS011;23886;46.614;14.276;2022-08-19T04:49:18;9.70;;;6.93;;
12314;SDS011;23886;46.614;14.276;2022-08-19T04:51:47;7.47;;;6.60;;
12314;SDS011;23886;46.614;14.276;2022-08-19T04:54:16;8.60;;;6.37;;
12314;SDS011;23886;46.614;14.276;2022-08-19T04:56:47;7.00;;;6.07;;
12314;SDS011;23886;46.614;14.276;2022-08-19T04:59:16;8.50;;;6.03;;
12314;SDS011;23886;46.614;14.276;2022-08-19T05:01:43;9.07;;;5.80;;
12314;SDS011;23886;46.614;14.276;2022-08-19T05:04:17;7.20;;;5.80;;
12314;SDS011;23886;46.614;14.276;2022-08-19T05:06:46;7.27;;;6.03;;
12314;SDS011;23886;46.614;14.276;2022-08-19T05:09:14;7.17;;;6.00;;
12314;SDS011;23886;46.614;14.276;2022-08-19T05:11:42;8.67;;;6.17;;
12314;SDS011;23886;46.614;14.276;2022-08-19T05:14:09;7.13;;;5.90;;
12314;SDS011;23886;46.614;14.276;2022-08-19T05:16:38;10.13;;;5.90;;
12314;SDS011;23886;46.614;14.276;2022-08-19T05:19:05;7.60;;;5.53;;
12314;SDS011;23886;46.614;14.276;2022-08-19T05:21:52;6.10;;;5.27;;
12314;SDS011;23886;46.614;14.276;2022-08-19T05:24:36;6.13;;;5.00;;
12314;SDS011;23886;46.614;14.276;2022-08-19T05:27:04;5.80;;;4.70;;
12314;SDS011;23886;46.614;14.276;2022-08-19T05:29:31;6.67;;;4.70;;
12314;SDS011;23886;46.614;14.276;2022-08-19T05:32:00;5.20;;;4.57;;
12314;SDS011;23886;46.614;14.276;2022-08-19T05:34:30;8.30;;;4.60;;
12314;SDS011;23886;46.614;14.276;2022-08-19T05:36:59;5.60;;;4.50;;
12314;SDS011;23886;46.614;14.276;2022-08-19T05:39:31;9.13;;;4.63;;
12314;SDS011;23886;46.614;14.276;2022-08-19T05:42:01;8.90;;;4.40;;
12314;SDS011;23886;46.614;14.276;2022-08-19T05:44:31;8.20;;;4.40;;
12314;SDS011;23886;46.614;14.276;2022-08-19T05:47:00;7.03;;;4.47;;
12314;SDS011;23886;46.614;14.276;2022-08-19T05:49:29;7.43;;;4.00;;
12314;SDS011;23886;46.614;14.276;2022-08-19T05:52:02;7.23;;;4.20;;
12314;SDS011;23886;46.614;14.276;2022-08-19T05:54:30;7.77;;;4.80;;
12314;SDS011;23886;46.614;14.276;2022-08-19T05:56:57;6.37;;;4.93;;
12314;SDS011;23886;46.614;14.276;2022-08-19T05:59:26;8.73;;;5.60;;
12314;SDS011;23886;46.614;14.276;2022-08-19T06:01:53;5.57;;;5.07;;
12314;SDS011;23886;46.614;14.276;2022-08-19T06:04:22;7.53;;;5.77;;
12314;SDS011;23886;46.614;14.276;2022-08-19T06:06:50;9.03;;;6.03;;
12314;SDS011;23886;46.614;14.276;2022-08-19T06:09:20;5.40;;;4.90;;
12314;SDS011;23886;46.614;14.276;2022-08-19T06:11:49;6.20;;;4.90;;
12314;SDS011;23886;46.614;14.276;2022-08-19T06:14:20;7.60;;;5.20;;
12314;SDS011;23886;46.614;14.276;2022-08-19T06:16:49;6.13;;;4.80;;
12314;SDS011;23886;46.614;14.276;2022-08-19T06:19:17;5.07;;;4.57;;
12314;SDS011;23886;46.614;14.276;2022-08-19T06:21:47;6.87;;;4.77;;
12314;SDS011;23886;46.614;14.276;2022-08-19T06:24:16;7.40;;;4.77;;
12314;SDS011;23886;46.614;14.276;2022-08-19T06:26:47;6.13;;;5.33;;
12314;SDS011;23886;46.614;14.276;2022-08-19T06:29:16;7.67;;;6.00;;
12314;SDS011;23886;46.614;14.276;2022-08-19T06:31:44;6.50;;;5.40;;
12314;SDS011;23886;46.614;14.276;2022-08-19T06:34:14;6.47;;;5.40;;
12314;SDS011;23886;46.614;14.276;2022-08-19T06:36:43;5.50;;;5.00;;
12314;SDS011;23886;46.614;14.276;2022-08-19T06:39:13;6.87;;;5.00;;
12314;SDS011;23886;46.614;14.276;2022-08-19T06:41:42;5.10;;;4.40;;
12314;SDS011;23886;46.614;14.276;2022-08-19T06:44:12;5.37;;;4.87;;
12314;SDS011;23886;46.614;14.276;2022-08-19T06:46:40;4.80;;;4.30;;
12314;SDS011;23886;46.614;14.276;2022-08-19T06:49:08;5.87;;;4.67;;
12314;SDS011;23886;46.614;14.276;2022-08-19T06:51:38;4.40;;;3.80;;
12314;SDS011;23886;46.614;14.276;2022-08-19T06:54:06;5.13;;;4.40;;
12314;SDS011;23886;46.614;14.276;2022-08-19T06:56:33;4.43;;;4.03;;
12314;SDS011;23886;46.614;14.276;2022-08-19T06:59:00;4.63;;;3.87;;
12314;SDS011;23886;46.614;14.276;2022-08-19T07:01:30;5.43;;;3.40;;
12314;SDS011;23886;46.614;14.276;2022-08-19T07:04:02;3.40;;;3.00;;
12314;SDS011;23886;46.614;14.276;2022-08-19T07:06:30;5.30;;;3.37;;
12314;SDS011;23886;46.614;14.276;2022-08-19T07:08:57;4.70;;;3.70;;
12314;SDS011;23886;46.614;14.276;2022-08-19T07:11:24;3.90;;;3.40;;
12314;SDS011;23886;46.614;14.276;2022-08-19T07:13:52;4.00;;;3.03;;
12314;SDS011;23886;46.614;14.276;2022-08-19T07:16:19;4.37;;;3.43;;
12314;SDS011;23886;46.614;14.276;2022-08-19T07:18:49;4.50;;;3.30;;
12314;SDS011;23886;46.614;14.276;2022-08-19T07:21:17;3.30;;;2.80;;
12314;SDS011;23886;46.614;14.276;2022-08-19T07:23:46;4.20;;;3.10;;
12314;SDS011;23886;46.614;14.276;2022-08-19T07:26:15;4.40;;;3.10;;
12314;SDS011;23886;46.614;14.276;2022-08-19T07:28:44;3.27;;;2.87;;
12314;SDS011;23886;46.614;14.276;2022-08-19T07:31:12;5.60;;;3.10;;
12314;SDS011;23886;46.614;14.276;2022-08-19T07:33:40;5.07;;;3.37;;
12314;SDS011;23886;46.614;14.276;2022-08-19T07:36:10;5.10;;;3.33;;
12314;SDS011;23886;46.614;14.276;2022-08-19T07:38:38;4.27;;;3.03;;
12314;SDS011;23886;46.614;14.276;2022-08-19T07:41:10;4.70;;;3.00;;
12314;SDS011;23886;46.614;14.276;2022-08-19T07:43:38;7.63;;;3.77;;
12314;SDS011;23886;46.614;14.276;2022-08-19T07:46:06;5.90;;;3.33;;
12314;SDS011;23886;46.614;14.276;2022-08-19T07:48:34;4.10;;;3.07;;
12314;SDS011;23886;46.614;14.276;2022-08-19T07:51:02;5.60;;;2.90;;
12314;SDS011;23886;46.614;14.276;2022-08-19T07:53:34;6.00;;;2.90;;
12314;SDS011;23886;46.614;14.276;2022-08-19T07:56:02;4.10;;;2.60;;
12314;SDS011;23886;46.614;14.276;2022-08-19T07:58:30;4.10;;;2.80;;
12314;SDS011;23886;46.614;14.276;2022-08-19T08:00:59;6.50;;;2.70;;
12314;SDS011;23886;46.614;14.276;2022-08-19T08:03:26;4.20;;;2.77;;
12314;SDS011;23886;46.614;14.276;2022-08-19T08:06:08;5.50;;;2.63;;
12314;SDS011;23886;46.614;14.276;2022-08-19T08:08:54;3.93;;;2.63;;
12314;SDS011;23886;46.614;14.276;2022-08-19T08:11:47;4.70;;;2.80;;
12314;SDS011;23886;46.614;14.276;2022-08-19T08:14:18;5.67;;;2.73;;
12314;SDS011;23886;46.614;14.276;2022-08-19T08:16:47;3.63;;;2.57;;
12314;SDS011;23886;46.614;14.276;2022-08-19T08:19:17;5.20;;;2.77;;
12314;SDS011;23886;46.614;14.276;2022-08-19T08:21:44;4.23;;;2.20;;
12314;SDS011;23886;46.614;14.276;2022-08-19T08:24:13;3.27;;;2.20;;
12314;SDS011;23886;46.614;14.276;2022-08-19T08:26:41;3.40;;;2.10;;
12314;SDS011;23886;46.614;14.276;2022-08-19T08:29:08;3.60;;;2.23;;
12314;SDS011;23886;46.614;14.276;2022-08-19T08:31:36;4.67;;;2.30;;
12314;SDS011;23886;46.614;14.276;2022-08-19T08:34:03;4.43;;;2.30;;
12314;SDS011;23886;46.614;14.276;2022-08-19T08:36:30;5.40;;;2.47;;
12314;SDS011;23886;46.614;14.276;2022-08-19T08:38:58;4.57;;;2.33;;
12314;SDS011;23886;46.614;14.276;2022-08-19T08:41:42;4.67;;;2.17;;
12314;SDS011;23886;46.614;14.276;2022-08-19T08:44:17;3.27;;;2.13;;
12314;SDS011;23886;46.614;14.276;2022-08-19T08:46:50;3.30;;;2.00;;
12314;SDS011;23886;46.614;14.276;2022-08-19T08:49:24;4.73;;;2.40;;
12314;SDS011;23886;46.614;14.276;2022-08-19T08:51:58;4.67;;;2.00;;
12314;SDS011;23886;46.614;14.276;2022-08-19T08:54:30;3.50;;;2.00;;
12314;SDS011;23886;46.614;14.276;2022-08-19T08:57:01;4.37;;;2.30;;
12314;SDS011;23886;46.614;14.276;2022-08-19T08:59:31;4.60;;;2.20;;
12314;SDS011;23886;46.614;14.276;2022-08-19T09:02:03;4.17;;;2.43;;
12314;SDS011;23886;46.614;14.276;2022-08-19T09:04:30;6.90;;;2.23;;
12314;SDS011;23886;46.614;14.276;2022-08-19T09:07:04;3.87;;;2.30;;
12314;SDS011;23886;46.614;14.276;2022-08-19T09:09:52;4.47;;;2.13;;
12314;SDS011;23886;46.614;14.276;2022-08-19T09:12:25;3.13;;;2.00;;
12314;SDS011;23886;46.614;14.276;2022-08-19T09:15:02;5.30;;;2.20;;
12314;SDS011;23886;46.614;14.276;2022-08-19T09:17:33;3.57;;;2.13;;
12314;SDS011;23886;46.614;14.276;2022-08-19T09:20:11;3.77;;;2.07;;
12314;SDS011;23886;46.614;14.276;2022-08-19T09:22:42;3.60;;;1.90;;
12314;SDS011;23886;46.614;14.276;2022-08-19T09:25:10;2.63;;;2.00;;
12314;SDS011;23886;46.614;14.276;2022-08-19T09:27:42;3.13;;;2.20;;
12314;SDS011;23886;46.614;14.276;2022-08-19T09:30:12;5.33;;;2.07;;
12314;SDS011;23886;46.614;14.276;2022-08-19T09:32:40;3.63;;;1.93;;
12314;SDS011;23886;46.614;14.276;2022-08-19T09:35:08;3.77;;;1.90;;
12314;SDS011;23886;46.614;14.276;2022-08-19T09:37:35;3.40;;;1.90;;
12314;SDS011;23886;46.614;14.276;2022-08-19T09:40:03;2.77;;;2.00;;
12314;SDS011;23886;46.614;14.276;2022-08-19T09:42:31;3.07;;;1.80;;
12314;SDS011;23886;46.614;14.276;2022-08-19T09:45:00;3.27;;;1.93;;
12314;SDS011;23886;46.614;14.276;2022-08-19T09:47:27;4.03;;;2.40;;
12314;SDS011;23886;46.614;14.276;2022-08-19T09:49:54;3.47;;;2.07;;
12314;SDS011;23886;46.614;14.276;2022-08-19T09:52:22;3.37;;;1.90;;
12314;SDS011;23886;46.614;14.276;2022-08-19T09:54:51;3.13;;;1.77;;
12314;SDS011;23886;46.614;14.276;2022-08-19T09:57:18;3.20;;;2.70;;
12314;SDS011;23886;46.614;14.276;2022-08-19T09:59:45;3.30;;;2.30;;
12314;SDS011;23886;46.614;14.276;2022-08-19T10:02:14;2.50;;;1.83;;
12314;SDS011;23886;46.614;14.276;2022-08-19T10:04:41;2.57;;;1.70;;
12314;SDS011;23886;46.614;14.276;2022-08-19T10:07:25;2.53;;;1.60;;
12314;SDS011;23886;46.614;14.276;2022-08-19T10:09:52;4.20;;;2.20;;
12314;SDS011;23886;46.614;14.276;2022-08-19T10:12:19;3.47;;;2.20;;
12314;SDS011;23886;46.614;14.276;2022-08-19T10:14:47;2.97;;;2.00;;
12314;SDS011;23886;46.614;14.276;2022-08-19T10:17:17;3.33;;;1.90;;
12314;SDS011;23886;46.614;14.276;2022-08-19T10:19:44;3.60;;;2.07;;
12314;SDS011;23886;46.614;14.276;2022-08-19T10:22:11;2.40;;;1.90;;
12314;SDS011;23886;46.614;14.276;2022-08-19T10:24:39;2.47;;;1.80;;
12314;SDS011;23886;46.614;14.276;2022-08-19T10:27:06;2.57;;;1.60;;
12314;SDS011;23886;46.614;14.276;2022-08-19T10:29:34;3.27;;;2.90;;
12314;SDS011;23886;46.614;14.276;2022-08-19T10:32:02;2.70;;;1.83;;
12314;SDS011;23886;46.614;14.276;2022-08-19T10:34:32;2.10;;;1.90;;
12314;SDS011;23886;46.614;14.276;2022-08-19T10:37:00;2.40;;;1.40;;
12314;SDS011;23886;46.614;14.276;2022-08-19T10:39:28;3.40;;;1.93;;
12314;SDS011;23886;46.614;14.276;2022-08-19T10:41:55;3.03;;;1.57;;
12314;SDS011;23886;46.614;14.276;2022-08-19T10:44:22;4.37;;;1.60;;
12314;SDS011;23886;46.614;14.276;2022-08-19T10:46:50;1.87;;;1.30;;
12314;SDS011;23886;46.614;14.276;2022-08-19T10:49:17;2.47;;;1.90;;
12314;SDS011;23886;46.614;14.276;2022-08-19T10:51:46;2.17;;;1.50;;
12314;SDS011;23886;46.614;14.276;2022-08-19T10:54:31;1.77;;;1.33;;
12314;SDS011;23886;46.614;14.276;2022-08-19T10:57:16;3.40;;;1.77;;
12314;SDS011;23886;46.614;14.276;2022-08-19T10:59:43;2.50;;;1.60;;
12314;SDS011;23886;46.614;14.276;2022-08-19T11:02:11;3.13;;;1.90;;
12314;SDS011;23886;46.614;14.276;2022-08-19T11:04:39;2.57;;;1.60;;
12314;SDS011;23886;46.614;14.276;2022-08-19T11:07:07;2.73;;;1.73;;
12314;SDS011;23886;46.614;14.276;2022-08-19T11:09:37;2.57;;;1.90;;
12314;SDS011;23886;46.614;14.276;2022-08-19T11:12:06;5.93;;;4.10;;
12314;SDS011;23886;46.614;14.276;2022-08-19T11:14:34;4.60;;;2.90;;
12314;SDS011;23886;46.614;14.276;2022-08-19T11:17:02;2.77;;;1.70;;
12314;SDS011;23886;46.614;14.276;2022-08-19T11:19:30;3.83;;;2.33;;
12314;SDS011;23886;46.614;14.276;2022-08-19T11:21:58;2.80;;;1.80;;
12314;SDS011;23886;46.614;14.276;2022-08-19T11:24:28;2.00;;;1.80;;
12314;SDS011;23886;46.614;14.276;2022-08-19T11:27:00;3.57;;;2.80;;
12314;SDS011;23886;46.614;14.276;2022-08-19T11:29:29;4.50;;;2.13;;
12314;SDS011;23886;46.614;14.276;2022-08-19T11:31:57;2.27;;;1.60;;
12314;SDS011;23886;46.614;14.276;2022-08-19T11:34:26;3.77;;;2.37;;
12314;SDS011;23886;46.614;14.276;2022-08-19T11:36:54;3.77;;;2.03;;
12314;SDS011;23886;46.614;14.276;2022-08-19T11:39:24;2.87;;;1.93;;
12314;SDS011;23886;46.614;14.276;2022-08-19T11:41:54;3.60;;;2.07;;
12314;SDS011;23886;46.614;14.276;2022-08-19T11:44:21;4.30;;;2.03;;
12314;SDS011;23886;46.614;14.276;2022-08-19T11:46:48;5.17;;;2.67;;
12314;SDS011;23886;46.614;14.276;2022-08-19T11:49:17;3.63;;;2.40;;
12314;SDS011;23886;46.614;14.276;2022-08-19T11:51:46;2.73;;;2.40;;
12314;SDS011;23886;46.614;14.276;2022-08-19T11:54:15;4.30;;;2.50;;
12314;SDS011;23886;46.614;14.276;2022-08-19T11:56:43;3.63;;;1.90;;
12314;SDS011;23886;46.614;14.276;2022-08-19T11:59:14;2.10;;;1.87;;
12314;SDS011;23886;46.614;14.276;2022-08-19T12:01:41;4.00;;;2.77;;
12314;SDS011;23886;46.614;14.276;2022-08-19T12:04:08;2.37;;;1.73;;
12314;SDS011;23886;46.614;14.276;2022-08-19T12:06:36;2.57;;;2.07;;
12314;SDS011;23886;46.614;14.276;2022-08-19T12:09:05;2.67;;;1.90;;
12314;SDS011;23886;46.614;14.276;2022-08-19T12:11:34;2.73;;;2.20;;
12314;SDS011;23886;46.614;14.276;2022-08-19T12:14:03;4.00;;;2.53;;
12314;SDS011;23886;46.614;14.276;2022-08-19T12:16:32;3.13;;;2.83;;
12314;SDS011;23886;46.614;14.276;2022-08-19T12:19:00;2.40;;;1.80;;
12314;SDS011;23886;46.614;14.276;2022-08-19T12:21:29;3.50;;;3.20;;
12314;SDS011;23886;46.614;14.276;2022-08-19T12:23:57;3.47;;;2.20;;
12314;SDS011;23886;46.614;14.276;2022-08-19T12:26:26;2.47;;;2.00;;
12314;SDS011;23886;46.614;14.276;2022-08-19T12:28:54;2.33;;;1.63;;
12314;SDS011;23886;46.614;14.276;2022-08-19T12:31:21;3.97;;;1.90;;
12314;SDS011;23886;46.614;14.276;2022-08-19T12:33:49;2.17;;;1.77;;
12314;SDS011;23886;46.614;14.276;2022-08-19T12:36:17;3.77;;;2.17;;
12314;SDS011;23886;46.614;14.276;2022-08-19T12:38:44;3.27;;;1.50;;
12314;SDS011;23886;46.614;14.276;2022-08-19T12:41:12;4.13;;;2.27;;
12314;SDS011;23886;46.614;14.276;2022-08-19T12:43:42;2.87;;;1.80;;
12314;SDS011;23886;46.614;14.276;2022-08-19T12:46:10;3.43;;;1.83;;
12314;SDS011;23886;46.614;14.276;2022-08-19T12:48:37;3.50;;;1.90;;
12314;SDS011;23886;46.614;14.276;2022-08-19T12:51:09;2.80;;;1.80;;
12314;SDS011;23886;46.614;14.276;2022-08-19T12:53:38;3.03;;;1.80;;
12314;SDS011;23886;46.614;14.276;2022-08-19T12:56:05;2.03;;;1.73;;
12314;SDS011;23886;46.614;14.276;2022-08-19T12:58:32;3.77;;;1.80;;
12314;SDS011;23886;46.614;14.276;2022-08-19T13:01:05;3.00;;;1.93;;
12314;SDS011;23886;46.614;14.276;2022-08-19T13:03:32;3.90;;;1.80;;
12314;SDS011;23886;46.614;14.276;2022-08-19T13:06:00;4.80;;;3.33;;
12314;SDS011;23886;46.614;14.276;2022-08-19T13:08:28;2.27;;;2.00;;
12314;SDS011;23886;46.614;14.276;2022-08-19T13:10:55;2.77;;;1.93;;
12314;SDS011;23886;46.614;14.276;2022-08-19T13:13:23;4.77;;;2.30;;
12314;SDS011;23886;46.614;14.276;2022-08-19T13:15:51;2.63;;;2.00;;
12314;SDS011;23886;46.614;14.276;2022-08-19T13:18:18;3.30;;;2.10;;
12314;SDS011;23886;46.614;14.276;2022-08-19T13:20:45;3.27;;;2.07;;
12314;SDS011;23886;46.614;14.276;2022-08-19T13:23:12;3.60;;;2.37;;
12314;SDS011;23886;46.614;14.276;2022-08-19T13:25:40;3.00;;;1.93;;
12314;SDS011;23886;46.614;14.276;2022-08-19T13:28:07;3.17;;;1.80;;
12314;SDS011;23886;46.614;14.276;2022-08-19T13:30:34;3.00;;;2.20;;
12314;SDS011;23886;46.614;14.276;2022-08-19T13:33:18;2.73;;;1.93;;
12314;SDS011;23886;46.614;14.276;2022-08-19T13:35:46;3.07;;;2.10;;
12314;SDS011;23886;46.614;14.276;2022-08-19T13:38:16;3.43;;;2.13;;
12314;SDS011;23886;46.614;14.276;2022-08-19T13:40:47;3.50;;;2.00;;
12314;SDS011;23886;46.614;14.276;2022-08-19T13:43:17;2.93;;;2.20;;
12314;SDS011;23886;46.614;14.276;2022-08-19T13:45:45;2.40;;;2.17;;
12314;SDS011;23886;46.614;14.276;2022-08-19T13:48:12;2.90;;;2.30;;
12314;SDS011;23886;46.614;14.276;2022-08-19T13:50:40;2.93;;;2.20;;
12314;SDS011;23886;46.614;14.276;2022-08-19T13:53:11;2.97;;;2.20;;
12314;SDS011;23886;46.614;14.276;2022-08-19T13:55:39;2.10;;;1.80;;
12314;SDS011;23886;46.614;14.276;2022-08-19T13:58:08;2.00;;;1.70;;
12314;SDS011;23886;46.614;14.276;2022-08-19T14:00:37;4.90;;;4.20;;
12314;SDS011;23886;46.614;14.276;2022-08-19T14:03:06;2.70;;;2.50;;
12314;SDS011;23886;46.614;14.276;2022-08-19T14:05:34;1.93;;;1.70;;
12314;SDS011;23886;46.614;14.276;2022-08-19T14:08:02;2.93;;;1.50;;
12314;SDS011;23886;46.614;14.276;2022-08-19T14:10:29;2.30;;;1.57;;
12314;SDS011;23886;46.614;14.276;2022-08-19T14:12:57;1.67;;;1.45;;
12314;SDS011;23886;46.614;14.276;2022-08-19T14:15:28;2.17;;;1.30;;
12314;SDS011;23886;46.614;14.276;2022-08-19T14:17:55;1.33;;;1.23;;
12314;SDS011;23886;46.614;14.276;2022-08-19T14:20:22;2.40;;;1.40;;
12314;SDS011;23886;46.614;14.276;2022-08-19T14:22:49;1.70;;;1.50;;
12314;SDS011;23886;46.614;14.276;2022-08-19T14:25:18;1.50;;;1.40;;
12314;SDS011;23886;46.614;14.276;2022-08-19T14:27:47;1.70;;;1.37;;
12314;SDS011;23886;46.614;14.276;2022-08-19T14:30:16;2.53;;;1.50;;
12314;SDS011;23886;46.614;14.276;2022-08-19T14:32:46;3.33;;;1.35;;
12314;SDS011;23886;46.614;14.276;2022-08-19T14:35:14;1.58;;;1.23;;
12314;SDS011;23886;46.614;14.276;2022-08-19T14:37:43;1.52;;;1.10;;
12314;SDS011;23886;46.614;14.276;2022-08-19T14:40:11;3.13;;;1.45;;
12314;SDS011;23886;46.614;14.276;2022-08-19T14:42:40;2.20;;;1.40;;
12314;SDS011;23886;46.614;14.276;2022-08-19T14:45:08;2.13;;;1.30;;